createdAt,value
2022-11-05T00:00:36.752Z,94370.72
2022-11-05T00:03:22.039Z,94358.63
2022-11-05T00:06:11.556Z,94369.16
2022-11-05T00:08:58.088Z,94376.50
2022-11-05T00:11:44.961Z,94378.91
2022-11-05T00:14:30.817Z,94383.81
2022-11-05T00:16:57.564Z,94398.38
2022-11-05T00:19:25.020Z,94394.91
2022-11-05T00:22:10.185Z,94380.13
2022-11-05T00:24:55.400Z,94387.06
2022-11-05T00:27:22.504Z,94404.34
2022-11-05T00:29:49.151Z,94407.22
2022-11-05T00:32:15.904Z,94399.63
2022-11-05T00:34:42.662Z,94394.13
2022-11-05T00:37:10.015Z,94380.47
2022-11-05T00:39:36.914Z,94370.97
2022-11-05T00:42:22.345Z,94387.50
2022-11-05T00:45:01.191Z,94407.09
2022-11-05T00:47:46.629Z,94372.75
2022-11-05T00:50:13.676Z,94378.31
2022-11-05T00:52:55.605Z,94389.19
2022-11-05T00:55:28.356Z,94367.00
2022-11-05T00:57:56.686Z,94382.50
2022-11-05T01:00:26.745Z,94356.44
2022-11-05T01:02:54.065Z,94381.56
2022-11-05T01:05:20.893Z,94378.28
2022-11-05T01:07:47.609Z,94378.66
2022-11-05T01:10:14.310Z,94374.78
2022-11-05T01:12:41.609Z,94355.19
2022-11-05T01:15:09.050Z,94379.84
2022-11-05T01:17:35.714Z,94394.56
2022-11-05T01:20:02.479Z,94401.78
2022-11-05T01:22:29.130Z,94413.78
2022-11-05T01:24:55.890Z,94375.44
2022-11-05T01:27:22.659Z,94406.81
2022-11-05T01:29:49.349Z,94391.56
2022-11-05T01:32:16.084Z,94400.31
2022-11-05T01:34:43.033Z,94397.69
2022-11-05T01:37:09.717Z,94411.13
2022-11-05T01:39:36.431Z,94419.34
2022-11-05T01:42:03.221Z,94413.78
2022-11-05T01:44:52.447Z,94407.16
2022-11-05T01:47:34.324Z,94422.38
2022-11-05T01:50:06.900Z,94422.41
2022-11-05T01:52:35.671Z,94420.16
2022-11-05T01:55:04.389Z,94418.81
2022-11-05T01:57:32.704Z,94424.41
2022-11-05T02:00:01.018Z,94428.72
2022-11-05T02:02:30.967Z,94428.50
2022-11-05T02:05:03.461Z,94436.38
2022-11-05T02:07:31.033Z,94448.13
2022-11-05T02:10:02.714Z,94422.28
2022-11-05T02:12:30.376Z,94433.00
2022-11-05T02:14:58.378Z,94440.78
2022-11-05T02:18:03.622Z,94442.00
2022-11-05T02:20:38.669Z,94435.72
2022-11-05T02:23:26.546Z,94449.81
2022-11-05T02:26:26.014Z,94450.84
2022-11-05T02:29:17.480Z,94452.88
2022-11-05T02:32:13.608Z,94446.53
2022-11-05T02:35:18.945Z,94455.84
2022-11-05T02:37:53.240Z,94448.56
2022-11-05T02:40:38.692Z,94444.06
2022-11-05T02:43:22.345Z,94432.66
2022-11-05T02:46:15.076Z,94436.94
2022-11-05T02:48:58.590Z,94418.91
2022-11-05T02:51:54.318Z,94444.28
2022-11-05T02:54:36.562Z,94455.63
2022-11-05T02:57:04.283Z,94460.47
2022-11-05T02:59:31.325Z,94441.59
2022-11-05T03:01:59.919Z,94441.28
2022-11-05T03:04:27.886Z,94426.72
2022-11-05T03:07:45.291Z,94453.09
2022-11-05T03:10:27.947Z,94456.66
2022-11-05T03:13:14.350Z,94470.66
2022-11-05T03:16:04.350Z,94483.72
2022-11-05T03:18:40.056Z,94479.19
2022-11-05T03:21:12.061Z,94489.22
2022-11-05T03:24:03.858Z,94499.94
2022-11-05T03:26:33.801Z,94485.31
2022-11-05T03:29:07.143Z,94500.78
2022-11-05T03:31:37.235Z,94495.84
2022-11-05T03:34:07.108Z,94496.16
2022-11-05T03:36:41.225Z,94507.63
2022-11-05T03:39:13.233Z,94520.38
2022-11-05T03:41:44.104Z,94518.00
2022-11-05T03:44:15.957Z,94522.19
2022-11-05T03:46:49.313Z,94540.75
2022-11-05T03:49:21.526Z,94541.13
2022-11-05T03:52:09.425Z,94500.88
2022-11-05T03:54:36.699Z,94532.19
2022-11-05T03:57:19.520Z,94527.19
2022-11-05T03:59:49.267Z,94535.88
2022-11-05T04:02:19.087Z,94546.81
2022-11-05T04:04:46.670Z,94533.53
2022-11-05T04:07:33.108Z,94534.56
2022-11-05T04:10:18.395Z,94533.91
2022-11-05T04:13:03.683Z,94544.16
2022-11-05T04:15:30.387Z,94540.66
2022-11-05T04:17:59.827Z,94545.13
2022-11-05T04:20:45.419Z,94548.88
2022-11-05T04:23:30.691Z,94560.88
2022-11-05T04:25:57.634Z,94532.13
2022-11-05T04:28:44.443Z,94544.78
2022-11-05T04:31:11.410Z,94547.31
2022-11-05T04:33:38.079Z,94515.69
2022-11-05T04:36:04.943Z,94536.25
2022-11-05T04:38:31.590Z,94538.50
2022-11-05T04:41:14.611Z,94554.16
2022-11-05T04:43:41.642Z,94546.25
2022-11-05T04:46:08.508Z,94553.00
2022-11-05T04:48:35.949Z,94563.56
2022-11-05T04:51:03.157Z,94567.00
2022-11-05T04:53:31.173Z,94560.97
2022-11-05T04:56:18.977Z,94557.13
2022-11-05T04:58:45.752Z,94557.53
2022-11-05T05:01:15.714Z,94558.09
2022-11-05T05:03:42.967Z,94559.25
2022-11-05T05:06:10.376Z,94557.56
2022-11-05T05:08:37.351Z,94558.88
2022-11-05T05:11:06.365Z,94563.06
2022-11-05T05:13:33.381Z,94574.81
2022-11-05T05:16:04.629Z,94566.88
2022-11-05T05:18:31.302Z,94563.84
2022-11-05T05:21:17.466Z,94564.53
2022-11-05T05:23:45.032Z,94576.09
2022-11-05T05:26:12.052Z,94573.25
2022-11-05T05:28:38.888Z,94582.72
2022-11-05T05:31:05.643Z,94585.88
2022-11-05T05:33:32.356Z,94583.84
2022-11-05T05:36:05.745Z,94584.50
2022-11-05T05:38:35.211Z,94576.28
2022-11-05T05:41:02.184Z,94587.31
2022-11-05T05:43:34.874Z,94582.66
2022-11-05T05:46:06.089Z,94578.38
2022-11-05T05:48:33.092Z,94573.41
2022-11-05T05:51:06.631Z,94550.72
2022-11-05T05:53:33.985Z,94592.50
2022-11-05T05:56:00.854Z,94590.34
2022-11-05T05:58:32.618Z,94583.66
2022-11-05T06:01:04.835Z,94600.06
2022-11-05T06:03:31.602Z,94606.47
2022-11-05T06:06:09.648Z,94609.19
2022-11-05T06:08:36.919Z,94616.28
2022-11-05T06:11:04.538Z,94617.69
2022-11-05T06:13:31.753Z,94612.84
2022-11-05T06:16:06.407Z,94607.38
2022-11-05T06:18:34.199Z,94612.81
2022-11-05T06:21:09.185Z,94632.34
2022-11-05T06:23:37.556Z,94660.66
2022-11-05T06:26:07.121Z,94660.06
2022-11-05T06:28:33.936Z,94642.88
2022-11-05T06:31:01.891Z,94632.66
2022-11-05T06:33:28.888Z,94635.84
2022-11-05T06:36:00.535Z,94641.09
2022-11-05T06:38:27.715Z,94654.91
2022-11-05T06:40:54.419Z,94634.25
2022-11-05T06:43:21.087Z,94641.06
2022-11-05T06:45:47.790Z,94628.56
2022-11-05T06:48:15.190Z,94616.94
2022-11-05T06:50:44.940Z,94632.72
2022-11-05T06:53:13.023Z,94624.66
2022-11-05T06:55:40.688Z,94643.75
2022-11-05T06:58:07.417Z,94638.22
2022-11-05T07:00:34.170Z,94663.66
2022-11-05T07:03:05.438Z,94663.59
2022-11-05T07:05:32.883Z,94647.00
2022-11-05T07:08:00.240Z,94665.16
2022-11-05T07:10:26.987Z,94656.28
2022-11-05T07:12:53.658Z,94676.03
2022-11-05T07:15:20.488Z,94646.63
2022-11-05T07:17:47.310Z,94677.16
2022-11-05T07:20:14.330Z,94674.63
2022-11-05T07:22:41.811Z,94636.19
2022-11-05T07:25:08.861Z,94670.34
2022-11-05T07:27:40.147Z,94662.31
2022-11-05T07:30:09.318Z,94667.66
2022-11-05T07:32:42.371Z,94689.38
2022-11-05T07:35:09.578Z,94680.19
2022-11-05T07:37:47.793Z,94707.47
2022-11-05T07:40:17.881Z,94706.38
2022-11-05T07:42:56.216Z,94676.03
2022-11-05T07:45:24.143Z,94666.69
2022-11-05T07:47:53.792Z,94675.41
2022-11-05T07:50:22.735Z,94686.91
2022-11-05T07:52:50.347Z,94717.16
2022-11-05T07:55:18.580Z,94705.91
2022-11-05T07:57:48.801Z,94670.22
2022-11-05T08:00:20.101Z,94707.56
2022-11-05T08:03:07.299Z,94677.50
2022-11-05T08:05:40.428Z,94673.34
2022-11-05T08:08:08.632Z,94702.00
2022-11-05T08:10:36.767Z,94714.22
2022-11-05T08:13:03.767Z,94713.38
2022-11-05T08:15:31.496Z,94689.56
2022-11-05T08:18:06.571Z,94732.50
2022-11-05T08:20:34.572Z,94674.13
2022-11-05T08:23:02.082Z,94656.06
2022-11-05T08:25:29.535Z,94690.59
2022-11-05T08:28:02.937Z,94685.56
2022-11-05T08:30:30.292Z,94684.59
2022-11-05T08:33:03.332Z,94692.72
2022-11-05T08:35:31.259Z,94688.16
2022-11-05T08:38:03.225Z,94688.34
2022-11-05T08:40:32.217Z,94689.69
2022-11-05T08:43:00.325Z,94678.03
2022-11-05T08:45:28.932Z,94698.28
2022-11-05T08:48:07.795Z,94678.44
2022-11-05T08:50:34.578Z,94701.06
2022-11-05T08:53:02.156Z,94711.31
2022-11-05T08:55:29.185Z,94701.47
2022-11-05T08:58:01.727Z,94682.34
2022-11-05T09:00:30.538Z,94691.13
2022-11-05T09:03:02.825Z,94731.81
2022-11-05T09:05:31.616Z,94726.38
2022-11-05T09:08:01.212Z,94744.50
2022-11-05T09:10:28.944Z,94727.41
2022-11-05T09:12:56.017Z,94734.16
2022-11-05T09:15:23.537Z,94731.09
2022-11-05T09:17:50.992Z,94739.19
2022-11-05T09:20:18.497Z,94683.25
2022-11-05T09:22:46.733Z,94711.34
2022-11-05T09:25:16.417Z,94745.16
2022-11-05T09:27:44.852Z,94754.44
2022-11-05T09:30:14.222Z,94749.41
2022-11-05T09:32:41.686Z,94752.06
2022-11-05T09:35:09.390Z,94752.59
2022-11-05T09:37:36.666Z,94752.41
2022-11-05T09:40:03.860Z,94754.28
2022-11-05T09:42:40.549Z,94702.91
2022-11-05T09:45:15.968Z,94746.69
2022-11-05T09:47:53.268Z,94730.22
2022-11-05T09:50:25.900Z,94763.41
2022-11-05T09:52:52.724Z,94764.25
2022-11-05T09:55:33.549Z,94764.75
2022-11-05T09:58:04.770Z,94782.22
2022-11-05T10:00:33.203Z,94773.50
2022-11-05T10:03:28.518Z,94780.63
2022-11-05T10:06:07.822Z,94767.41
2022-11-05T10:08:44.696Z,94773.03
2022-11-05T10:11:19.745Z,94772.44
2022-11-05T10:14:03.154Z,94767.34
2022-11-05T10:16:34.082Z,94777.16
2022-11-05T10:19:09.898Z,94768.66
2022-11-05T10:22:04.761Z,94791.97
2022-11-05T10:24:24.945Z,94772.84
2022-11-05T10:26:53.659Z,94789.97
2022-11-05T10:29:33.349Z,94768.75
2022-11-05T10:32:05.669Z,94768.84
2022-11-05T10:34:36.120Z,94782.00
2022-11-05T10:37:03.732Z,94771.59
2022-11-05T10:39:33.318Z,94756.84
2022-11-05T10:42:26.224Z,94793.81
2022-11-05T10:45:08.140Z,94791.31
2022-11-05T10:48:05.352Z,94792.66
2022-11-05T10:50:33.949Z,94769.34
2022-11-05T10:53:18.686Z,94800.38
2022-11-05T10:55:48.824Z,94822.59
2022-11-05T10:58:15.487Z,94812.25
2022-11-05T11:00:51.410Z,94797.53
2022-11-05T11:03:53.886Z,94820.81
2022-11-05T11:06:28.760Z,94777.41
2022-11-05T11:08:58.713Z,94834.16
2022-11-05T11:11:33.775Z,94820.84
2022-11-05T11:14:14.716Z,94831.47
2022-11-05T11:16:44.108Z,94828.50
2022-11-05T11:19:31.825Z,94815.34
2022-11-05T11:22:04.563Z,94817.84
2022-11-05T11:24:38.423Z,94827.78
2022-11-05T11:27:09.497Z,94797.56
2022-11-05T11:29:42.813Z,94824.00
2022-11-05T11:32:15.764Z,94827.28
2022-11-05T11:34:45.305Z,94784.69
2022-11-05T11:37:19.707Z,94821.78
2022-11-05T11:39:53.535Z,94773.50
2022-11-05T11:42:35.319Z,94780.00
2022-11-05T11:45:32.076Z,94797.88
2022-11-05T11:48:04.274Z,94839.78
2022-11-05T11:50:38.638Z,94793.91
2022-11-05T11:53:20.570Z,94831.56
2022-11-05T11:56:06.304Z,94842.78
2022-11-05T11:58:40.070Z,94832.34
2022-11-05T12:01:09.637Z,94818.06
2022-11-05T12:03:48.731Z,94794.16
2022-11-05T12:06:18.468Z,94807.63
2022-11-05T12:09:30.153Z,94802.66
2022-11-05T12:12:09.768Z,94786.16
2022-11-05T12:14:46.743Z,94844.63
2022-11-05T12:17:28.213Z,94773.97
2022-11-05T12:20:24.295Z,94804.09
2022-11-05T12:23:06.117Z,94803.28
2022-11-05T12:25:37.985Z,94799.34
2022-11-05T12:29:04.642Z,94823.34
2022-11-05T12:31:44.544Z,94831.63
2022-11-05T12:34:29.680Z,94825.13
2022-11-05T12:37:14.816Z,94799.88
2022-11-05T12:39:54.842Z,94826.19
2022-11-05T12:42:33.693Z,94816.41
2022-11-05T12:45:04.913Z,94822.88
2022-11-05T12:47:57.663Z,94827.66
2022-11-05T12:50:42.557Z,94818.28
2022-11-05T12:53:33.682Z,94842.13
2022-11-05T12:56:04.759Z,94790.50
2022-11-05T12:58:36.333Z,94845.34
2022-11-05T13:01:08.802Z,94835.00
2022-11-05T13:03:50.513Z,94854.78
2022-11-05T13:06:35.192Z,94855.94
2022-11-05T13:09:10.717Z,94820.22
2022-11-05T13:11:49.773Z,94822.16
2022-11-05T13:14:28.996Z,94798.84
2022-11-05T13:17:16.886Z,94827.59
2022-11-05T13:20:22.029Z,94820.84
2022-11-05T13:22:55.681Z,94829.47
2022-11-05T13:25:25.795Z,94850.00
2022-11-05T13:28:17.900Z,94878.75
2022-11-05T13:30:51.728Z,94858.09
2022-11-05T13:33:23.678Z,94862.91
2022-11-05T13:36:19.192Z,94854.19
2022-11-05T13:38:59.450Z,94831.03
2022-11-05T13:41:58.993Z,94825.34
2022-11-05T13:44:48.038Z,94839.28
2022-11-05T13:48:06.694Z,94857.63
2022-11-05T13:50:48.323Z,94868.97
2022-11-05T13:53:24.125Z,94859.50
2022-11-05T13:56:13.609Z,94873.53
2022-11-05T13:59:01.223Z,94890.34
2022-11-05T14:01:45.219Z,94862.09
2022-11-05T14:04:34.508Z,94876.13
2022-11-05T14:07:17.510Z,94849.59
2022-11-05T14:09:46.213Z,94863.97
2022-11-05T14:12:25.167Z,94860.69
2022-11-05T14:14:59.291Z,94892.63
2022-11-05T14:17:31.337Z,94898.91
2022-11-05T14:20:04.630Z,94881.59
2022-11-05T14:22:31.542Z,94903.47
2022-11-05T14:25:22.986Z,94898.81
2022-11-05T14:27:52.709Z,94888.91
2022-11-05T14:30:55.267Z,94897.38
2022-11-05T14:33:24.515Z,94905.06
2022-11-05T14:35:52.931Z,94891.50
2022-11-05T14:38:26.125Z,94897.16
2022-11-05T14:41:01.601Z,94889.53
2022-11-05T14:43:32.354Z,94893.28
2022-11-05T14:46:06.868Z,94901.97
2022-11-05T14:48:41.996Z,94936.66
2022-11-05T14:51:26.913Z,94896.09
2022-11-05T14:54:05.064Z,94904.97
2022-11-05T14:56:55.851Z,94864.19
2022-11-05T14:59:29.169Z,94919.50
2022-11-05T15:02:24.081Z,94908.66
2022-11-05T15:04:53.177Z,94894.88
2022-11-05T15:07:34.047Z,94925.19
2022-11-05T15:10:10.609Z,94936.28
2022-11-05T15:12:42.293Z,94931.34
2022-11-05T15:15:27.902Z,94911.06
2022-11-05T15:18:15.796Z,94907.19
2022-11-05T15:20:48.395Z,94891.81
2022-11-05T15:23:20.725Z,94907.03
2022-11-05T15:25:53.505Z,94939.59
2022-11-05T15:28:42.167Z,94876.00
2022-11-05T15:31:14.554Z,94944.53
2022-11-05T15:33:44.329Z,94953.31
2022-11-05T15:36:26.249Z,94935.16
2022-11-05T15:39:22.900Z,94932.84
2022-11-05T15:41:40.696Z,94945.88
2022-11-05T15:44:35.390Z,94956.09
2022-11-05T15:47:14.391Z,94953.31
2022-11-05T15:49:44.160Z,94965.44
2022-11-05T15:52:12.873Z,94972.91
2022-11-05T15:54:40.163Z,94972.81
2022-11-05T15:57:26.651Z,94962.00
2022-11-05T15:59:53.754Z,94959.66
2022-11-05T16:02:26.790Z,94952.22
2022-11-05T16:04:53.653Z,94956.56
2022-11-05T16:07:21.855Z,94948.47
2022-11-05T16:09:56.124Z,94944.75
2022-11-05T16:12:33.183Z,94995.75
2022-11-05T16:15:18.707Z,94971.38
2022-11-05T16:17:53.391Z,94980.28
2022-11-05T16:20:24.053Z,94981.88
2022-11-05T16:23:24.649Z,94985.94
2022-11-05T16:25:52.158Z,95002.25
2022-11-05T16:28:27.500Z,95010.13
2022-11-05T16:31:05.820Z,95007.00
2022-11-05T16:33:45.313Z,95008.91
2022-11-05T16:36:12.735Z,95014.19
2022-11-05T16:38:39.651Z,95018.22
2022-11-05T16:41:07.016Z,95035.44
2022-11-05T16:43:35.071Z,95050.06
2022-11-05T16:46:02.295Z,95042.69
2022-11-05T16:48:29.040Z,95041.75
2022-11-05T16:50:55.895Z,95040.28
2022-11-05T16:53:22.929Z,95064.78
2022-11-05T16:55:50.132Z,95026.78
2022-11-05T16:58:22.916Z,95035.00
2022-11-05T17:00:52.245Z,95049.97
2022-11-05T17:03:19.061Z,95045.56
2022-11-05T17:05:46.584Z,95058.72
2022-11-05T17:08:13.708Z,95064.28
2022-11-05T17:10:40.785Z,95073.84
2022-11-05T17:13:10.047Z,95084.91
2022-11-05T17:15:37.213Z,95072.63
2022-11-05T17:18:05.295Z,95081.69
2022-11-05T17:20:40.739Z,95081.06
2022-11-05T17:23:16.438Z,95090.28
2022-11-05T17:25:46.741Z,95076.06
2022-11-05T17:28:14.014Z,95078.94
2022-11-05T17:30:41.852Z,95077.88
2022-11-05T17:33:11.340Z,95085.63
2022-11-05T17:35:42.305Z,95086.94
2022-11-05T17:38:09.887Z,95093.09
2022-11-05T17:40:37.768Z,95078.84
2022-11-05T17:43:05.832Z,95069.28
2022-11-05T17:45:33.827Z,95076.72
2022-11-05T17:48:03.283Z,95092.00
2022-11-05T17:50:30.277Z,95081.00
2022-11-05T17:52:57.010Z,95066.84
2022-11-05T17:55:23.690Z,95105.41
2022-11-05T17:57:52.011Z,95095.53
2022-11-05T18:00:23.466Z,95093.34
2022-11-05T18:02:52.963Z,95097.22
2022-11-05T18:05:20.972Z,95052.94
2022-11-05T18:07:48.830Z,95098.38
2022-11-05T18:10:16.156Z,95082.09
2022-11-05T18:12:43.504Z,95081.97
2022-11-05T18:15:10.665Z,95108.03
2022-11-05T18:17:38.212Z,95105.66
2022-11-05T18:20:14.174Z,95087.06
2022-11-05T18:22:44.771Z,95112.97
2022-11-05T18:25:13.337Z,95107.63
2022-11-05T18:27:40.603Z,95109.41
2022-11-05T18:30:08.586Z,95105.72
2022-11-05T18:32:36.105Z,95066.84
2022-11-05T18:35:03.225Z,95073.25
2022-11-05T18:37:29.889Z,95064.44
2022-11-05T18:39:56.591Z,95083.34
2022-11-05T18:42:25.323Z,95066.47
2022-11-05T18:44:52.838Z,95074.53
2022-11-05T18:47:19.651Z,95100.25
2022-11-05T18:49:46.332Z,95115.94
2022-11-05T18:52:13.273Z,95078.50
2022-11-05T18:54:39.993Z,95108.81
2022-11-05T18:57:07.204Z,95106.75
2022-11-05T18:59:39.120Z,95121.31
2022-11-05T19:02:08.885Z,95094.97
2022-11-05T19:04:38.235Z,95116.63
2022-11-05T19:07:06.053Z,95123.91
2022-11-05T19:09:34.692Z,95119.84
2022-11-05T19:12:02.402Z,95111.59
2022-11-05T19:14:30.174Z,95114.75
2022-11-05T19:17:00.798Z,95102.69
2022-11-05T19:19:27.681Z,95124.72
2022-11-05T19:21:54.629Z,95098.88
2022-11-05T19:24:21.610Z,95108.34
2022-11-05T19:26:48.622Z,95110.69
2022-11-05T19:29:15.314Z,95132.00
2022-11-05T19:31:42.049Z,95101.78
2022-11-05T19:34:09.052Z,95130.81
2022-11-05T19:36:35.894Z,95130.44
2022-11-05T19:39:08.983Z,95124.53
2022-11-05T19:41:35.918Z,95134.97
2022-11-05T19:44:03.970Z,95144.72
2022-11-05T19:46:31.627Z,95135.97
2022-11-05T19:49:00.568Z,95134.91
2022-11-05T19:51:29.432Z,95134.22
2022-11-05T19:53:56.565Z,95144.88
2022-11-05T19:56:25.942Z,95150.06
2022-11-05T19:58:54.300Z,95154.25
2022-11-05T20:01:23.356Z,95166.41
2022-11-05T20:03:51.065Z,95158.91
2022-11-05T20:06:21.326Z,95150.53
2022-11-05T20:11:40.113Z,95151.16
2022-11-05T20:14:09.263Z,95163.09
2022-11-05T20:16:40.383Z,95158.91
2022-11-05T20:19:10.800Z,95145.78
2022-11-05T20:21:39.639Z,95159.56
2022-11-05T20:24:07.422Z,95156.31
2022-11-05T20:26:35.008Z,95168.84
2022-11-05T20:29:01.799Z,95163.00
2022-11-05T20:31:28.592Z,95150.06
2022-11-05T20:33:55.671Z,95144.97
2022-11-05T20:36:24.994Z,95141.59
2022-11-05T20:38:58.065Z,95121.44
2022-11-05T20:41:25.984Z,95146.09
2022-11-05T20:43:54.791Z,95150.81
2022-11-05T20:46:24.311Z,95156.06
2022-11-05T20:48:52.597Z,95156.03
2022-11-05T20:51:21.834Z,95151.53
2022-11-05T20:53:55.024Z,95153.84
2022-11-05T20:56:27.635Z,95152.94
2022-11-05T20:58:58.503Z,95133.47
2022-11-05T21:01:27.771Z,95148.72
2022-11-05T21:03:55.137Z,95134.31
2022-11-05T21:06:22.798Z,95149.91
2022-11-05T21:08:51.701Z,95137.94
2022-11-05T21:11:20.374Z,95147.22
2022-11-05T21:13:48.054Z,95149.53
2022-11-05T21:16:18.841Z,95134.72
2022-11-05T21:18:46.770Z,95143.47
2022-11-05T21:21:17.086Z,95140.63
2022-11-05T21:23:43.852Z,95131.22
2022-11-05T21:26:13.337Z,95134.81
2022-11-05T21:28:41.382Z,95138.41
2022-11-05T21:31:09.631Z,95104.91
2022-11-05T21:33:38.643Z,95127.59
2022-11-05T21:36:12.235Z,95115.53
2022-11-05T21:38:40.841Z,95145.78
2022-11-05T21:41:10.589Z,95136.25
2022-11-05T21:43:40.061Z,95139.16
2022-11-05T21:46:06.773Z,95143.19
2022-11-05T21:48:34.058Z,95151.66
2022-11-05T21:51:19.857Z,95138.69
2022-11-05T21:54:05.306Z,95155.75
2022-11-05T21:56:50.540Z,95151.78
2022-11-05T21:59:41.253Z,95153.28
2022-11-05T22:02:11.271Z,95146.56
2022-11-05T22:04:43.506Z,95148.47
2022-11-05T22:07:13.037Z,95146.97
2022-11-05T22:09:40.114Z,95122.56
2022-11-05T22:12:07.594Z,95137.53
2022-11-05T22:14:35.128Z,95135.03
2022-11-05T22:17:01.848Z,95141.00
2022-11-05T22:19:28.725Z,95152.09
2022-11-05T22:21:55.603Z,95149.44
2022-11-05T22:24:23.403Z,95151.28
2022-11-05T22:26:50.461Z,95158.06
2022-11-05T22:29:17.497Z,95151.72
2022-11-05T22:31:44.313Z,95147.69
2022-11-05T22:34:11.653Z,95128.09
2022-11-05T22:36:38.745Z,95143.38
2022-11-05T22:39:06.097Z,95116.34
2022-11-05T22:41:33.197Z,95126.47
2022-11-05T22:43:59.880Z,95133.03
2022-11-05T22:46:27.354Z,95136.25
2022-11-05T22:48:55.536Z,95146.84
2022-11-05T22:51:25.716Z,95141.28
2022-11-05T22:53:54.958Z,95141.34
2022-11-05T22:56:24.648Z,95135.41
2022-11-05T22:58:52.064Z,95131.66
2022-11-05T23:01:20.583Z,95107.25
2022-11-05T23:03:49.452Z,95123.19
2022-11-05T23:06:40.806Z,95110.75
2022-11-05T23:09:36.857Z,95114.69
2022-11-05T23:12:06.055Z,95117.03
2022-11-05T23:14:33.016Z,95122.75
2022-11-05T23:17:17.992Z,95143.72
2022-11-05T23:20:03.445Z,95133.69
2022-11-05T23:22:49.673Z,95129.00
2022-11-05T23:25:19.815Z,95148.25
2022-11-05T23:27:49.283Z,95143.31
2022-11-05T23:30:25.221Z,95155.69
2022-11-05T23:32:56.148Z,95158.34
2022-11-05T23:35:43.008Z,95164.13
2022-11-05T23:38:28.810Z,95172.50
2022-11-05T23:41:19.748Z,95157.50
2022-11-05T23:44:05.072Z,95148.84
2022-11-05T23:46:50.803Z,95151.88
2022-11-05T23:49:17.965Z,95110.97
2022-11-05T23:51:44.768Z,95134.44
2022-11-05T23:54:11.651Z,95130.94
2022-11-05T23:56:38.602Z,95144.22
2022-11-05T23:59:06.301Z,95148.41
